createdAt,value
2019-04-23T11:35:17.634Z,8.00
2019-04-23T11:36:19.354Z,8.00
2019-04-23T11:37:05.350Z,8.00
2019-04-23T11:38:21.988Z,8.00
2019-04-23T11:38:58.708Z,8.00
2019-04-23T11:40:13.653Z,8.00
2019-04-23T11:41:09.102Z,8.00
2019-04-23T11:42:11.515Z,8.00
2019-04-23T11:44:18.972Z,8.00
2019-04-23T11:45:50.176Z,8.00
2019-04-23T16:59:09.652Z,8.80
2019-04-23T17:00:06.803Z,8.40
2019-04-23T17:00:45.755Z,8.60
2019-04-23T17:01:24.921Z,8.50
2019-04-23T17:02:40.559Z,8.70
2019-04-23T17:03:32.960Z,9.20
2019-04-23T17:04:30.719Z,8.70
2019-04-23T17:05:31.486Z,8.40
2019-04-23T17:06:30.908Z,8.20
2019-04-23T17:07:24.280Z,8.20
2019-04-23T17:10:36.633Z,7.00
2019-04-23T17:11:18.884Z,8.40
2019-04-23T17:12:09.142Z,8.50
2019-04-23T17:13:14.252Z,8.80
2019-04-23T17:14:09.223Z,6.80
2019-04-23T17:15:27.895Z,7.70
2019-04-23T17:17:08.361Z,8.80
2019-04-23T17:18:13.563Z,8.30
2019-04-23T17:19:17.821Z,7.10
2019-04-23T17:21:23.778Z,8.30
2019-04-23T17:22:09.916Z,6.40
2019-04-23T17:23:29.033Z,8.30
2019-04-23T17:24:19.027Z,8.10
2019-04-23T17:25:29.866Z,8.10
2019-04-23T17:27:16.437Z,7.80
2019-04-23T17:29:15.191Z,7.90
2019-04-23T17:38:07.453Z,8.90
2019-04-23T17:41:15.606Z,9.90
2019-04-23T17:41:31.214Z,10.10
2019-04-23T17:41:48.407Z,8.60
2019-04-23T17:42:39.364Z,8.50
2019-04-23T17:43:05.867Z,8.10
2019-04-23T17:44:24.093Z,8.60
2019-04-23T17:45:30.949Z,8.80
2019-04-23T17:46:18.050Z,9.40
2019-04-23T17:48:24.075Z,8.40
2019-04-23T17:49:15.597Z,8.70
2019-04-23T17:51:13.308Z,8.70
2019-04-23T17:52:24.163Z,8.70
2019-04-23T17:53:31.868Z,8.70
2019-04-23T17:54:19.349Z,8.70
2019-04-23T17:55:18.308Z,8.70
2019-04-23T17:56:27.235Z,8.70
2019-04-23T17:58:23.421Z,8.70
2019-04-23T18:04:43.775Z,10.40
2019-04-23T18:05:40.712Z,10.40
2019-04-23T18:06:42.313Z,10.20
2019-04-23T18:08:27.239Z,11.90
2019-04-23T18:09:27.807Z,10.20
2019-04-23T18:11:47.601Z,11.30
2019-04-23T18:12:38.871Z,11.50
2019-04-23T18:13:40.333Z,11.40
2019-04-23T18:14:21.683Z,11.90
2019-04-23T18:15:28.031Z,11.10
2019-04-23T18:16:35.569Z,11.00
2019-04-23T18:17:34.307Z,11.30
2019-04-23T18:18:39.616Z,12.80
2019-04-23T18:19:47.189Z,12.10
2019-04-23T18:20:28.270Z,11.90
2019-04-23T18:21:50.753Z,11.60
2019-04-23T18:22:42.305Z,10.90
2019-04-23T18:23:32.086Z,11.30
2019-04-23T18:24:36.401Z,11.90
2019-04-23T18:25:37.398Z,12.20
2019-04-23T18:26:36.417Z,11.90
2019-04-23T18:27:33.426Z,11.60
2019-04-23T18:28:37.685Z,12.40
2019-04-23T18:29:42.065Z,11.50
2019-04-23T18:30:37.908Z,12.20
2019-04-23T18:31:40.729Z,11.80
2019-04-23T18:32:44.765Z,12.10
2019-04-23T18:34:54.118Z,12.70
2019-04-23T18:36:32.484Z,12.50
2019-04-23T18:37:37.999Z,12.50
2019-04-23T18:38:41.285Z,12.10
2019-04-23T18:39:45.109Z,12.10
2019-04-23T18:40:54.536Z,12.40
2019-04-23T18:41:42.502Z,12.10
2019-04-23T18:43:44.922Z,12.80
2019-04-23T18:44:43.620Z,13.30
2019-04-23T18:45:45.307Z,12.60
2019-04-23T18:46:43.698Z,12.80
2019-04-23T18:47:46.941Z,12.40
2019-04-23T18:51:00.218Z,12.80
2019-04-23T18:52:01.351Z,13.40
2019-04-23T18:53:54.513Z,12.50
2019-04-23T18:55:09.095Z,13.90
2019-04-23T18:57:09.860Z,12.50
2019-04-23T18:57:55.367Z,13.60
2019-04-23T19:01:49.537Z,13.30
2019-04-23T19:02:56.654Z,13.60
2019-04-23T19:04:09.823Z,13.50
2019-04-23T19:06:05.135Z,12.70
2019-04-23T19:06:40.005Z,14.30
2019-04-23T19:10:12.142Z,14.10
2019-04-23T19:10:53.744Z,14.20
2019-04-23T19:12:48.128Z,13.60
2019-04-23T19:13:50.536Z,14.40
2019-04-23T19:14:56.298Z,13.30
2019-04-23T19:15:48.797Z,13.10
2019-04-23T19:17:50.209Z,14.30
2019-04-23T19:18:57.586Z,13.80
2019-04-23T19:19:55.627Z,13.30
2019-04-23T19:22:16.059Z,12.80
2019-04-23T19:22:58.602Z,13.30
2019-04-23T19:23:54.979Z,13.00
2019-04-23T19:24:51.870Z,13.40
2019-04-23T19:25:59.702Z,13.80
2019-04-23T19:27:10.597Z,13.40
2019-04-23T19:28:08.871Z,13.10
2019-04-23T19:29:00.446Z,12.90
2019-04-23T19:29:59.907Z,13.60
2019-04-23T19:31:18.790Z,14.10
2019-04-23T19:31:57.034Z,13.30
2019-04-23T19:33:05.769Z,14.20
2019-04-23T19:34:14.538Z,13.10
2019-04-23T19:35:07.057Z,14.40
2019-04-23T19:38:05.766Z,13.70
2019-04-23T19:39:11.110Z,13.80
2019-04-23T19:40:04.836Z,13.80
2019-04-23T19:41:21.290Z,14.60
2019-04-23T19:42:49.757Z,13.20
2019-04-23T19:43:49.266Z,13.10
2019-04-23T19:44:51.167Z,13.70
2019-04-23T19:45:56.711Z,13.70
2019-04-23T19:47:00.219Z,14.50
2019-04-23T19:47:58.656Z,13.30
2019-04-23T19:49:03.249Z,14.50
2019-04-23T19:49:51.270Z,15.40
2019-04-23T19:53:08.079Z,14.50
2019-04-23T19:54:56.654Z,13.30
2019-04-23T19:56:04.376Z,13.90
2019-04-23T19:58:00.002Z,13.90
2019-04-23T19:58:54.322Z,14.70
2019-04-23T19:59:55.968Z,14.30
2019-04-23T20:03:09.844Z,14.50
2019-04-23T20:03:54.098Z,14.10
2019-04-23T20:04:56.164Z,14.40
2019-04-23T20:06:05.951Z,14.60
2019-04-23T20:08:04.495Z,14.10
2019-04-23T20:09:16.231Z,12.60
2019-04-23T20:09:51.999Z,14.10
2019-04-23T20:10:55.960Z,13.70
2019-04-23T20:12:01.386Z,14.60
2019-04-23T20:12:51.817Z,14.40
2019-04-23T20:13:55.370Z,14.30
2019-04-23T20:14:58.178Z,13.70
2019-04-23T20:17:17.713Z,13.60
2019-04-23T20:17:53.928Z,14.00
2019-04-23T20:18:54.746Z,13.40
2019-04-23T20:19:58.704Z,13.60
2019-04-23T20:20:59.363Z,13.80
2019-04-23T20:23:03.671Z,14.70
2019-04-23T20:24:08.425Z,13.20
2019-04-23T20:25:30.037Z,13.60
2019-04-23T20:27:13.999Z,13.40
2019-04-23T20:28:15.001Z,13.50
2019-04-23T20:30:33.252Z,13.60
2019-04-23T20:33:53.065Z,14.10
2019-04-23T20:35:06.638Z,13.50
2019-04-23T20:36:14.646Z,13.30
2019-04-23T20:36:58.035Z,13.50
2019-04-23T20:38:25.527Z,12.60
2019-04-23T20:39:17.250Z,14.00
2019-04-23T20:41:14.811Z,13.20
2019-04-23T20:43:06.952Z,13.90
2019-04-23T20:44:12.505Z,13.00
2019-04-23T20:47:11.618Z,13.70
2019-04-23T20:48:14.202Z,14.90
2019-04-23T20:49:21.423Z,14.20
2019-04-23T20:49:58.784Z,13.50
2019-04-23T20:51:14.350Z,14.20
2019-04-23T20:52:13.973Z,13.70
2019-04-23T20:53:13.687Z,14.60
2019-04-23T20:54:18.573Z,14.00
2019-04-23T20:55:17.311Z,13.60
2019-04-23T20:56:17.990Z,13.70
2019-04-23T20:57:24.650Z,14.50
2019-04-23T20:58:09.591Z,13.70
2019-04-23T20:59:11.343Z,14.00
2019-04-23T21:02:33.791Z,13.70
2019-04-23T21:03:29.838Z,13.50
2019-04-23T21:04:23.504Z,13.70
2019-04-23T21:05:21.308Z,14.40
2019-04-23T21:06:18.905Z,13.20
2019-04-23T21:07:30.929Z,14.60
2019-04-23T21:08:30.090Z,13.40
2019-04-23T21:09:31.204Z,13.90
2019-04-23T21:10:30.686Z,14.40
2019-04-23T21:11:29.215Z,14.60
2019-04-23T21:12:41.739Z,14.60
2019-04-23T21:14:46.160Z,14.90
2019-04-23T21:16:21.137Z,14.10
2019-04-23T21:17:35.594Z,13.70
2019-04-23T21:18:33.054Z,13.90
2019-04-23T21:19:35.682Z,14.60
2019-04-23T21:21:27.608Z,14.60
2019-04-23T21:23:30.308Z,14.10
2019-04-23T21:24:27.401Z,14.40
2019-04-23T21:25:32.454Z,14.60
2019-04-23T21:26:25.069Z,15.30
2019-04-23T21:27:38.549Z,14.40
2019-04-23T21:29:39.945Z,15.40
2019-04-23T21:30:46.552Z,15.00
2019-04-23T21:31:22.866Z,14.80
2019-04-23T21:32:52.602Z,15.10
2019-04-23T21:33:55.353Z,15.30
2019-04-23T21:34:34.286Z,15.90
2019-04-23T21:35:49.265Z,14.90
2019-04-23T21:36:25.671Z,15.40
2019-04-23T21:37:37.660Z,15.30
2019-04-23T21:38:46.411Z,15.20
2019-04-23T21:39:48.005Z,15.60
2019-04-23T21:40:56.542Z,15.10
2019-04-23T21:41:44.847Z,15.10
2019-04-23T21:42:41.120Z,14.50
2019-04-23T21:43:47.556Z,15.10
2019-04-23T21:44:28.884Z,15.50
2019-04-23T21:45:40.845Z,14.70
2019-04-23T21:46:43.095Z,14.90
2019-04-23T21:47:46.306Z,15.50
2019-04-23T21:48:56.134Z,16.40
2019-04-23T21:50:43.735Z,15.20
2019-04-23T21:51:51.857Z,15.30
2019-04-23T21:52:41.655Z,15.30
2019-04-23T21:53:42.661Z,15.80
2019-04-23T21:54:38.207Z,16.10
2019-04-23T21:55:48.709Z,15.80
2019-04-23T21:56:40.074Z,15.20
2019-04-23T21:57:59.698Z,15.90
2019-04-23T21:58:58.058Z,15.70
2019-04-23T21:59:44.674Z,15.60
2019-04-23T22:00:42.077Z,15.40
2019-04-23T22:01:51.085Z,15.60
2019-04-23T22:02:45.477Z,15.60
2019-04-23T22:03:56.619Z,16.20
2019-04-23T22:04:49.953Z,16.20
2019-04-23T22:05:53.138Z,16.10
2019-04-23T22:06:52.879Z,15.60
2019-04-23T22:07:51.556Z,16.60
2019-04-23T22:08:43.853Z,15.60
2019-04-23T22:09:50.688Z,15.70
2019-04-23T22:11:00.611Z,16.60
2019-04-23T22:12:00.350Z,16.10
2019-04-23T22:12:54.645Z,16.70
2019-04-23T22:14:47.020Z,15.90
2019-04-23T22:16:01.728Z,15.20
2019-04-23T22:17:06.250Z,16.80
2019-04-23T22:17:50.257Z,17.30
2019-04-23T22:20:00.550Z,17.50
2019-04-23T22:20:49.303Z,16.30
2019-04-23T22:21:50.184Z,17.80
2019-04-23T22:23:58.301Z,17.10
2019-04-23T22:24:48.607Z,15.60
2019-04-23T22:25:56.987Z,16.50
2019-04-23T22:26:45.010Z,16.80
2019-04-23T22:27:54.823Z,15.90
2019-04-23T22:29:49.159Z,17.00
2019-04-23T22:31:10.716Z,17.10
2019-04-23T22:33:02.596Z,16.30
2019-04-23T22:34:02.246Z,15.80
2019-04-23T22:34:56.014Z,16.90
2019-04-23T22:37:04.256Z,16.90
2019-04-23T22:38:09.091Z,17.00
2019-04-23T22:38:59.516Z,17.50
2019-04-23T22:41:04.662Z,17.30
2019-04-23T22:44:07.520Z,16.60
2019-04-23T22:45:05.608Z,17.10
2019-04-23T22:46:18.261Z,17.70
2019-04-23T22:47:00.867Z,16.30
2019-04-23T22:51:19.383Z,16.80
2019-04-23T22:52:18.678Z,16.60
2019-04-23T22:53:01.977Z,17.70
2019-04-23T22:54:07.087Z,17.20
2019-04-23T22:55:07.987Z,17.00
2019-04-23T22:56:03.229Z,16.30
2019-04-23T22:58:04.396Z,16.60
2019-04-23T22:59:18.618Z,16.60
2019-04-23T23:01:17.500Z,15.90
2019-04-23T23:02:08.891Z,17.60
2019-04-23T23:04:04.995Z,17.00
2019-04-23T23:05:31.742Z,16.90
2019-04-23T23:08:07.812Z,15.90
2019-04-23T23:09:18.954Z,16.70
2019-04-23T23:11:28.741Z,16.60
2019-04-23T23:12:39.954Z,17.60
